Time;durP1;ratioP1;P1;durP2;ratioP2;P2;SDS_P1;SDS_P2;PMS_P1;PMS_P2;Temp;Humidity;BMP_temperature;BMP_pressure;BME280_temperature;BME280_humidity;BME280_pressure;Samples;Min_cycle;Max_cycle;Signal;HPM_P1;HPM_P2
2022/06/18 00:00:35;;;;;;;2.00;1.85;;;;;;;16.91;100.00;100843.16;6142270;28;20493;-96
2022/06/18 00:03:37;;;;;;;2.55;1.80;;;;;;;16.91;100.00;100840.56;6139505;28;20047;-96
2022/06/18 00:07:04;;;;;;;1.90;1.75;;;;;;;16.91;100.00;100843.16;6147288;28;20565;-96
2022/06/18 00:10:12;;;;;;;2.28;2.00;;;;;;;16.90;100.00;100838.94;6074951;29;20569;-96
2022/06/18 00:16:35;;;;;;;2.10;1.90;;;;;;;16.91;100.00;100824.06;6060806;29;20637;-95
2022/06/18 00:19:37;;;;;;;3.55;2.00;;;;;;;16.91;100.00;100830.09;6056143;29;20948;-95
2022/06/18 00:22:43;;;;;;;1.95;1.77;;;;;;;16.91;100.00;100824.88;6052702;29;20203;-95
2022/06/18 00:25:48;;;;;;;4.30;1.90;;;;;;;16.92;100.00;100817.88;6052163;29;20063;-96
2022/06/18 00:28:50;;;;;;;2.78;1.73;;;;;;;16.90;100.00;100812.78;6071151;29;20049;-96
2022/06/18 00:31:52;;;;;;;2.72;1.85;;;;;;;16.89;100.00;100800.66;6070445;29;20056;-96
2022/06/18 00:34:55;;;;;;;2.17;1.63;;;;;;;16.89;100.00;100811.13;6070774;29;20061;-95
2022/06/18 00:38:02;;;;;;;3.35;2.00;;;;;;;16.87;100.00;100804.41;6054132;29;20466;-95
2022/06/18 00:41:07;;;;;;;1.98;1.88;;;;;;;16.86;100.00;100803.59;6049074;29;20124;-95
2022/06/18 00:44:30;;;;;;;1.75;1.65;;;;;;;16.87;100.00;100802.63;6080292;29;20445;-95
2022/06/18 00:48:06;;;;;;;2.67;1.50;;;;;;;16.87;100.00;100805.25;6115685;28;20074;-95
2022/06/18 00:51:15;;;;;;;2.20;1.70;;;;;;;16.84;100.00;100797.69;6131669;28;20050;-94
2022/06/18 00:54:23;;;;;;;2.33;1.83;;;;;;;16.83;100.00;100790.84;6139914;28;20155;-95
2022/06/18 00:58:07;;;;;;;1.75;1.60;;;;;;;16.82;100.00;100789.22;6131261;28;20051;-96
2022/06/18 01:01:15;;;;;;;1.98;1.75;;;;;;;16.82;100.00;100783.97;6095223;29;20056;-95
2022/06/18 01:04:32;;;;;;;1.98;1.80;;;;;;;16.85;100.00;100781.06;6082824;29;20052;-96
2022/06/18 01:07:37;;;;;;;1.88;1.75;;;;;;;16.86;99.83;100779.25;6094477;29;20043;-94
2022/06/18 01:10:48;;;;;;;4.50;1.80;;;;;;;16.88;100.00;100782.53;6076441;29;20163;-95
2022/06/18 01:13:51;;;;;;;2.33;1.83;;;;;;;16.90;99.52;100776.16;6097802;29;20055;-96
2022/06/18 01:16:59;;;;;;;2.05;1.80;;;;;;;16.94;99.00;100771.44;6085329;29;20422;-95
2022/06/18 01:20:05;;;;;;;3.47;1.50;;;;;;;16.95;100.00;100776.53;6110655;29;20103;-96
2022/06/18 01:23:08;;;;;;;2.15;1.80;;;;;;;16.98;98.43;100764.94;6097551;29;20052;-95
2022/06/18 01:26:10;;;;;;;2.30;1.90;;;;;;;16.99;99.42;100764.78;6076479;29;20051;-95
2022/06/18 01:29:13;;;;;;;2.67;1.98;;;;;;;16.99;99.39;100756.09;6095495;29;20059;-95
2022/06/18 01:32:18;;;;;;;2.13;1.90;;;;;;;16.98;99.93;100755.28;6074813;29;20161;-95
2022/06/18 01:35:24;;;;;;;2.17;1.60;;;;;;;16.99;99.33;100750.88;6080088;28;20461;-95
2022/06/18 01:38:38;;;;;;;2.17;1.60;;;;;;;17.00;98.22;100750.72;6124932;28;20160;-95
2022/06/18 01:41:49;;;;;;;2.13;1.90;;;;;;;16.99;100.00;100743.00;6133847;28;20044;-96
2022/06/18 01:45:25;;;;;;;2.35;1.98;;;;;;;16.99;98.44;100743.84;6135043;28;20055;-96
2022/06/18 01:48:33;;;;;;;1.88;1.77;;;;;;;17.00;100.00;100737.63;6131992;28;20096;-95
2022/06/18 01:51:43;;;;;;;1.75;1.65;;;;;;;17.01;100.00;100733.22;6138352;28;20055;-95
2022/06/18 01:54:57;;;;;;;1.80;1.70;;;;;;;17.01;100.00;100722.75;6138722;28;20051;-95
2022/06/18 01:58:05;;;;;;;3.17;2.00;;;;;;;17.01;100.00;100720.97;6143121;28;20125;-95
2022/06/18 02:01:14;;;;;;;2.33;1.92;;;;;;;17.00;100.00;100719.34;6135742;28;20130;-95
2022/06/18 02:04:18;;;;;;;2.05;1.90;;;;;;;17.04;98.03;100719.00;6139960;28;20058;-95
2022/06/18 02:07:23;;;;;;;1.90;1.80;;;;;;;17.09;96.66;100716.72;6133144;28;20054;-96
2022/06/18 02:10:38;;;;;;;1.70;1.60;;;;;;;17.10;98.44;100708.75;6132835;28;20842;-96
2022/06/18 02:13:49;;;;;;;3.03;2.17;;;;;;;17.09;96.76;100704.50;6125138;28;20628;-95
2022/06/18 02:16:54;;;;;;;1.80;1.70;;;;;;;17.11;98.23;100701.72;6126815;28;20051;-96
2022/06/18 02:20:07;;;;;;;3.00;1.85;;;;;;;17.11;96.81;100699.91;6140166;28;20066;-95
2022/06/18 02:23:09;;;;;;;2.70;1.90;;;;;;;17.13;97.14;100697.13;6136847;28;20047;-95
2022/06/18 02:26:19;;;;;;;2.72;1.90;;;;;;;17.13;99.28;100692.72;6134687;28;20036;-95
2022/06/18 02:29:26;;;;;;;2.15;1.98;;;;;;;17.09;100.00;100695.81;6140928;28;20058;-96
2022/06/18 02:32:43;;;;;;;3.58;2.00;;;;;;;17.11;96.41;100697.28;6153920;28;20068;-95
2022/06/18 02:35:47;;;;;;;4.60;1.88;;;;;;;17.11;98.06;100688.63;6132594;28;20117;-95
2022/06/18 02:38:56;;;;;;;2.17;1.70;;;;;;;17.10;99.95;100687.81;6131316;28;20138;-96
2022/06/18 02:42:06;;;;;;;2.47;1.65;;;;;;;17.08;99.02;100675.88;6137839;28;20066;-96
2022/06/18 02:45:10;;;;;;;3.35;1.92;;;;;;;17.06;100.00;100685.69;6139634;28;20043;-95
2022/06/18 02:48:15;;;;;;;2.95;1.50;;;;;;;17.05;100.00;100690.09;6134535;28;20075;-95
2022/06/18 02:51:18;;;;;;;2.08;1.95;;;;;;;17.02;98.88;100685.19;6138438;28;20580;-95
2022/06/18 02:54:21;;;;;;;2.80;2.10;;;;;;;17.05;98.51;100684.06;6140103;28;20534;-95
2022/06/18 02:57:27;;;;;;;2.15;1.75;;;;;;;17.03;99.90;100686.00;6136491;28;20779;-95
2022/06/18 03:00:31;;;;;;;4.25;1.80;;;;;;;17.03;100.00;100686.00;6141469;28;20052;-95
2022/06/18 03:03:39;;;;;;;3.90;2.10;;;;;;;17.03;98.03;100684.19;6139162;28;20085;-95
2022/06/18 03:06:42;;;;;;;2.42;2.00;;;;;;;17.12;94.47;100680.63;6140363;28;20046;-95
2022/06/18 03:13:04;;;;;;;;;;;;;;;17.18;97.19;100681.78;6142905;28;20055;-96
2022/06/18 03:16:15;;;;;;;2.40;1.67;;;;;;;17.18;97.23;100677.38;6140641;28;20060;-95
2022/06/18 03:19:32;;;;;;;1.80;1.58;;;;;;;17.23;93.68;100676.88;6118286;28;20047;-96
2022/06/18 03:22:34;;;;;;;2.10;1.90;;;;;;;17.32;91.80;100664.66;6134190;28;20078;-95
2022/06/18 03:25:36;;;;;;;5.82;2.00;;;;;;;17.41;91.59;100674.94;6133137;28;20079;-96
2022/06/18 03:28:41;;;;;;;1.77;1.67;;;;;;;17.43;91.84;100669.56;6143289;28;20133;-96
2022/06/18 03:31:43;;;;;;;3.30;1.85;;;;;;;17.48;90.77;100669.88;6141018;28;20460;-96
2022/06/18 03:34:45;;;;;;;2.67;2.00;;;;;;;17.53;91.50;100664.97;6130814;28;20057;-95
2022/06/18 03:37:48;;;;;;;2.90;2.17;;;;;;;17.55;93.52;100670.88;6137916;28;20235;-95
2022/06/18 03:40:51;;;;;;;3.28;1.88;;;;;;;17.59;92.75;100668.75;6145323;28;20580;-95
2022/06/18 03:43:54;;;;;;;2.17;1.77;;;;;;;17.62;91.64;100674.47;6158960;28;20094;-95
2022/06/18 03:46:59;;;;;;;1.98;1.80;;;;;;;17.68;92.74;100678.22;6142740;28;20043;-96
2022/06/18 03:50:07;;;;;;;5.10;2.10;;;;;;;17.71;91.01;100671.84;6149159;28;20059;-96
2022/06/18 03:53:09;;;;;;;2.75;1.83;;;;;;;17.72;92.25;100663.84;6162024;28;20047;-96
2022/06/18 03:56:14;;;;;;;2.38;1.63;;;;;;;17.76;91.83;100659.06;6144032;28;20069;-96
2022/06/18 03:59:18;;;;;;;5.22;1.90;;;;;;;17.80;91.86;100663.84;6128832;28;20535;-95
2022/06/18 04:02:20;;;;;;;8.73;2.20;;;;;;;17.85;91.28;100663.38;6141956;28;20062;-95
2022/06/18 04:05:23;;;;;;;3.92;1.80;;;;;;;17.89;91.15;100666.47;6150464;28;20058;-95
2022/06/18 04:08:25;;;;;;;1.80;1.65;;;;;;;17.92;91.14;100660.91;6140097;28;20137;-95
2022/06/18 04:11:34;;;;;;;2.33;1.65;;;;;;;17.94;92.42;100658.94;6128394;28;20059;-95
2022/06/18 04:14:36;;;;;;;2.60;2.28;;;;;;;17.95;91.80;100673.66;6137735;28;20055;-96
2022/06/18 04:17:56;;;;;;;4.13;2.10;;;;;;;18.02;89.90;100677.25;6142212;28;20051;-95
2022/06/18 04:20:58;;;;;;;3.78;1.95;;;;;;;18.04;89.62;100678.72;6140894;28;20053;-96
2022/06/18 04:24:03;;;;;;;3.10;1.80;;;;;;;18.14;89.52;100683.00;6134915;28;20058;-96
2022/06/18 04:27:06;;;;;;;1.95;1.70;;;;;;;18.22;88.28;100686.41;6130170;28;20047;-96
2022/06/18 04:30:09;;;;;;;2.00;1.80;;;;;;;18.29;88.37;100687.34;6147924;28;20465;-95
2022/06/18 04:33:30;;;;;;;3.15;1.95;;;;;;;18.34;88.58;100686.88;6127264;28;20449;-96
2022/06/18 04:36:47;;;;;;;2.28;2.08;;;;;;;18.41;86.98;100687.00;6152023;28;20512;-95
2022/06/18 04:39:56;;;;;;;1.92;1.73;;;;;;;18.48;87.00;100675.69;6143264;28;20051;-96
2022/06/18 04:43:08;;;;;;;3.65;3.00;;;;;;;18.57;85.68;100676.47;6148414;28;20051;-95
2022/06/18 04:46:19;;;;;;;3.45;1.80;;;;;;;18.65;84.56;100673.78;6137977;28;20066;-96
2022/06/18 04:49:24;;;;;;;2.35;1.67;;;;;;;18.74;84.34;100674.59;6131841;28;20050;-96
2022/06/18 04:52:26;;;;;;;2.08;1.75;;;;;;;18.79;83.72;100680.16;6147341;28;20062;-96
2022/06/18 04:55:33;;;;;;;2.22;2.00;;;;;;;18.82;84.21;100682.44;6135454;28;20039;-96
2022/06/18 04:58:36;;;;;;;2.42;2.00;;;;;;;18.85;84.41;100679.47;6143429;28;20050;-95
2022/06/18 05:01:38;;;;;;;2.75;1.58;;;;;;;18.90;83.19;100682.41;6150142;28;20047;-95
2022/06/18 05:05:23;;;;;;;2.95;1.73;;;;;;;18.94;83.24;100681.06;6143250;28;20079;-95
2022/06/18 05:08:32;;;;;;;2.75;1.85;;;;;;;19.00;82.99;100674.31;6152047;28;20043;-96
2022/06/18 05:11:43;;;;;;;2.40;1.60;;;;;;;19.07;82.89;100679.69;6146915;28;20730;-96
2022/06/18 05:14:54;;;;;;;3.08;1.80;;;;;;;19.11;83.66;100684.44;6154813;28;20031;-95
2022/06/18 05:17:57;;;;;;;2.35;1.92;;;;;;;19.17;83.74;100682.91;6139072;28;20636;-95
2022/06/18 05:20:59;;;;;;;3.33;2.00;;;;;;;19.25;83.52;100676.78;6137984;28;20602;-95
2022/06/18 05:24:03;;;;;;;4.57;2.05;;;;;;;19.26;84.17;100675.81;6136616;28;20050;-95
2022/06/18 05:27:06;;;;;;;5.55;1.90;;;;;;;19.30;84.51;100672.69;6139261;28;20509;-95
2022/06/18 05:30:12;;;;;;;7.13;1.88;;;;;;;19.37;83.53;100678.03;6140226;28;20110;-96
2022/06/18 05:33:20;;;;;;;3.05;1.88;;;;;;;19.44;82.96;100672.91;6142012;28;20063;-95
2022/06/18 05:36:25;;;;;;;2.95;1.92;;;;;;;19.51;83.24;100679.91;6137658;28;20441;-96
2022/06/18 05:39:30;;;;;;;2.65;1.88;;;;;;;19.60;83.27;100672.75;6132889;28;20143;-96
2022/06/18 05:42:33;;;;;;;3.58;2.40;;;;;;;19.69;83.17;100677.00;6125713;28;20092;-96
2022/06/18 05:45:37;;;;;;;5.65;2.03;;;;;;;19.75;82.78;100673.66;6144710;28;20087;-95
2022/06/18 05:48:45;;;;;;;6.03;2.15;;;;;;;19.84;83.22;100670.97;6139466;28;20058;-94
2022/06/18 05:51:48;;;;;;;3.25;2.20;;;;;;;19.98;83.40;100668.34;6120074;28;20051;-95
2022/06/18 05:54:51;;;;;;;2.17;1.98;;;;;;;20.13;82.92;100673.63;6149632;28;20043;-95
2022/06/18 05:58:12;;;;;;;3.92;2.40;;;;;;;20.39;82.94;100673.16;6140412;28;20043;-95
2022/06/18 06:01:21;;;;;;;3.17;2.20;;;;;;;20.76;79.34;100673.25;6133501;28;20043;-94
2022/06/18 06:04:25;;;;;;;2.75;2.40;;;;;;;20.96;78.84;100668.22;6137689;28;20125;-95
2022/06/18 06:07:28;;;;;;;2.80;2.30;;;;;;;21.24;77.98;100670.94;6124004;28;20231;-95
2022/06/18 06:14:01;;;;;;;3.63;2.90;;;;;;;21.65;75.77;100671.16;6138373;28;20044;-95
2022/06/18 06:17:04;;;;;;;5.75;2.38;;;;;;;21.79;73.44;100669.44;6131261;28;20046;-95
2022/06/18 06:20:16;;;;;;;3.58;2.42;;;;;;;21.84;75.25;100666.25;6127539;28;20043;-94
2022/06/18 06:23:18;;;;;;;4.20;2.50;;;;;;;21.85;74.76;100662.59;6129822;28;20047;-95
2022/06/18 06:26:25;;;;;;;2.70;2.50;;;;;;;21.83;76.01;100667.22;6128808;28;20044;-96
2022/06/18 06:29:28;;;;;;;3.20;2.20;;;;;;;21.85;76.17;100662.59;6125648;28;20051;-96
2022/06/18 06:32:30;;;;;;;3.28;2.65;;;;;;;22.05;76.11;100660.91;6141510;28;20035;-95
2022/06/18 06:35:33;;;;;;;3.90;2.60;;;;;;;22.17;75.70;100663.00;6151284;28;21160;-95
2022/06/18 06:38:37;;;;;;;5.35;2.50;;;;;;;22.23;75.26;100663.06;6140062;28;20043;-95
2022/06/18 06:41:39;;;;;;;4.78;2.80;;;;;;;22.31;74.00;100662.06;6142729;28;20042;-94
2022/06/18 06:44:42;;;;;;;4.57;3.00;;;;;;;22.32;73.15;100664.53;6137038;28;20051;-95
2022/06/18 06:47:45;;;;;;;3.15;2.83;;;;;;;22.35;74.63;100666.78;6139350;28;20043;-95
2022/06/18 06:50:50;;;;;;;5.25;2.78;;;;;;;22.48;72.15;100668.66;6139291;28;20051;-96
2022/06/18 06:53:52;;;;;;;5.22;3.22;;;;;;;22.53;72.43;100665.44;6139846;28;20054;-95
2022/06/18 07:00:15;;;;;;;3.90;2.97;;;;;;;22.74;72.09;100659.25;6141019;28;20075;-94
2022/06/18 07:03:29;;;;;;;4.55;3.03;;;;;;;22.86;71.38;100654.22;6142708;28;20046;-94
2022/06/18 07:06:33;;;;;;;4.80;2.85;;;;;;;22.94;72.68;100654.00;6140237;28;20039;-94
2022/06/18 07:09:35;;;;;;;7.60;3.22;;;;;;;23.02;72.70;100656.50;6141953;28;20046;-94
2022/06/18 07:12:38;;;;;;;3.30;3.00;;;;;;;23.22;73.10;100659.97;6138620;28;20070;-95
2022/06/18 07:15:40;;;;;;;3.65;2.90;;;;;;;23.37;70.05;100649.22;6126096;28;20184;-94
2022/06/18 07:18:44;;;;;;;5.25;3.45;;;;;;;23.48;71.43;100653.13;6139194;28;20516;-95
2022/06/18 07:21:49;;;;;;;7.75;3.63;;;;;;;23.55;69.36;100653.09;6140432;28;20038;-94
2022/06/18 07:24:52;;;;;;;4.40;3.03;;;;;;;23.57;69.23;100651.88;6148041;28;20078;-96
2022/06/18 07:27:54;;;;;;;4.72;3.20;;;;;;;23.73;66.38;100655.97;6136720;28;20113;-95
2022/06/18 07:30:56;;;;;;;4.80;2.95;;;;;;;23.89;66.71;100654.72;6152511;28;20067;-95
2022/06/18 07:33:59;;;;;;;5.25;2.90;;;;;;;23.92;67.71;100661.44;6153332;28;20055;-94
2022/06/18 07:37:01;;;;;;;5.38;2.92;;;;;;;24.05;66.35;100650.84;6144620;28;20485;-94
2022/06/18 07:40:04;;;;;;;6.50;3.47;;;;;;;24.13;68.22;100658.56;6137163;28;20043;-94
2022/06/18 07:43:08;;;;;;;4.60;3.10;;;;;;;24.16;65.84;100660.78;6154414;28;20043;-95
2022/06/18 07:46:13;;;;;;;4.10;2.88;;;;;;;24.35;66.21;100653.81;6142803;28;20036;-94
2022/06/18 07:49:16;;;;;;;4.40;3.03;;;;;;;24.49;66.69;100654.59;6143918;28;20043;-94
2022/06/18 07:52:18;;;;;;;3.92;3.00;;;;;;;24.61;66.48;100652.09;6143640;28;20050;-95
2022/06/18 07:55:24;;;;;;;6.15;3.05;;;;;;;24.71;64.40;100642.69;6149526;28;20047;-95
2022/06/18 07:58:32;;;;;;;5.85;3.00;;;;;;;24.72;66.08;100635.56;6144333;28;20489;-94
2022/06/18 08:01:34;;;;;;;7.25;3.65;;;;;;;24.76;64.04;100644.69;6143735;28;20058;-95
2022/06/18 08:04:36;;;;;;;6.25;3.20;;;;;;;24.84;65.95;100643.63;6136181;28;20047;-94
2022/06/18 08:07:39;;;;;;;4.07;3.22;;;;;;;24.99;65.51;100633.56;6137182;28;20761;-94
2022/06/18 08:10:45;;;;;;;7.35;3.65;;;;;;;25.07;63.84;100635.16;6143611;28;20048;-93
2022/06/18 08:13:49;;;;;;;9.45;3.55;;;;;;;25.09;64.85;100635.75;6139816;28;20051;-93
2022/06/18 08:16:51;;;;;;;5.35;3.47;;;;;;;25.08;65.90;100631.47;6150889;28;20133;-93
2022/06/18 08:19:52;;;;;;;5.57;3.28;;;;;;;25.14;63.81;100641.19;6141977;28;20085;-92
2022/06/18 08:22:57;;;;;;;5.30;3.60;;;;;;;25.30;64.20;100634.63;6144791;28;20114;-91
2022/06/18 08:25:59;;;;;;;5.82;3.70;;;;;;;25.43;63.09;100634.50;6135550;28;20051;-91
2022/06/18 08:29:03;;;;;;;5.45;4.03;;;;;;;25.43;61.85;100634.50;6148526;28;20232;-91
2022/06/18 08:32:07;;;;;;;7.90;3.70;;;;;;;25.56;63.55;100633.56;6150413;28;20043;-91
2022/06/18 08:35:09;;;;;;;4.13;3.72;;;;;;;25.65;61.74;100632.28;6150419;28;20043;-91
2022/06/18 08:38:13;;;;;;;3.67;3.25;;;;;;;25.79;63.76;100635.63;6140389;28;20118;-87
2022/06/18 08:41:41;;;;;;;4.90;3.38;;;;;;;25.91;61.06;100636.56;6141641;28;20327;-88
2022/06/18 08:44:58;;;;;;;5.80;3.33;;;;;;;25.94;61.61;100641.41;6135877;28;20046;-87
2022/06/18 08:48:34;;;;;;;4.38;3.40;;;;;;;26.03;62.72;100630.50;6136210;28;20475;-88
2022/06/18 08:52:13;;;;;;;5.85;3.58;;;;;;;26.24;62.50;100638.03;6143480;28;20055;-88
2022/06/18 08:55:25;;;;;;;4.83;3.83;;;;;;;26.17;62.30;100637.28;6132812;28;20047;-87
2022/06/18 08:59:04;;;;;;;7.18;3.50;;;;;;;26.28;60.90;100631.22;6136370;28;20286;-88
2022/06/18 09:02:37;;;;;;;4.63;4.00;;;;;;;26.38;58.22;100631.53;6127840;28;20206;-88
2022/06/18 09:06:30;;;;;;;11.20;3.80;;;;;;;26.37;57.92;100629.91;6129418;28;20425;-87
2022/06/18 09:10:09;;;;;;;7.38;3.78;;;;;;;26.34;58.44;100635.66;6135007;28;20051;-87
2022/06/18 09:13:22;;;;;;;9.13;4.70;;;;;;;26.55;56.98;100638.91;6139815;28;20050;-86
2022/06/18 09:16:54;;;;;;;9.07;3.95;;;;;;;26.52;58.55;100641.97;6142897;28;20105;-86
2022/06/18 09:20:11;;;;;;;7.93;3.95;;;;;;;26.55;58.89;100636.25;6142215;28;20066;-86
2022/06/18 09:23:22;;;;;;;8.35;4.30;;;;;;;26.55;58.41;100631.75;6134556;28;20038;-87
2022/06/18 09:26:28;;;;;;;5.90;3.90;;;;;;;26.69;57.00;100631.59;6132169;28;20185;-88
2022/06/18 09:29:45;;;;;;;8.98;4.00;;;;;;;26.94;56.86;100631.44;6130639;28;20563;-87
2022/06/18 09:32:56;;;;;;;6.28;3.80;;;;;;;26.98;58.10;100630.75;6143040;28;20047;-88
2022/06/18 09:36:13;;;;;;;9.82;4.68;;;;;;;27.12;57.10;100630.53;6136260;28;20398;-88
2022/06/18 09:39:20;;;;;;;5.93;3.67;;;;;;;27.15;56.94;100633.53;6137911;28;20051;-86
2022/06/18 09:42:57;;;;;;;5.72;3.92;;;;;;;27.19;57.95;100629.44;6141073;28;20558;-89
2022/06/18 09:46:06;;;;;;;7.10;3.95;;;;;;;27.32;59.82;100627.59;6168495;28;20066;-90
2022/06/18 09:49:09;;;;;;;7.65;3.78;;;;;;;27.40;58.27;100617.44;6133664;28;20397;-89
2022/06/18 09:52:27;;;;;;;5.70;4.20;;;;;;;27.46;57.97;100629.00;6136193;28;20066;-90
2022/06/18 09:55:52;;;;;;;6.20;3.92;;;;;;;27.56;58.24;100628.44;6150401;28;20053;-90
2022/06/18 09:59:10;;;;;;;6.82;4.22;;;;;;;27.53;58.92;100628.88;6117898;28;20047;-89
2022/06/18 10:02:22;;;;;;;5.15;3.90;;;;;;;27.55;59.21;100638.25;6132826;28;20047;-89
2022/06/18 10:08:52;;;;;;;6.43;3.85;;;;;;;27.65;54.64;100638.50;6147883;28;20488;-88
2022/06/18 10:11:58;;;;;;;7.53;4.13;;;;;;;27.72;53.67;100633.03;6124074;28;20409;-89
2022/06/18 10:15:02;;;;;;;7.20;3.92;;;;;;;27.71;51.87;100634.09;6130851;28;20051;-89
2022/06/18 10:18:16;;;;;;;11.02;4.15;;;;;;;27.75;53.12;100621.13;6128811;28;20050;-89
2022/06/18 10:21:53;;;;;;;6.32;3.60;;;;;;;27.88;52.04;100626.25;6130932;28;20087;-90
2022/06/18 10:25:15;;;;;;;7.57;4.22;;;;;;;28.02;50.96;100624.94;6133084;28;20149;-90
2022/06/18 10:28:42;;;;;;;9.90;4.10;;;;;;;28.16;50.68;100611.38;6136529;28;20970;-90
2022/06/18 10:32:17;;;;;;;5.72;3.65;;;;;;;28.25;50.96;100613.44;6141114;28;20051;-89
2022/06/18 10:35:31;;;;;;;7.60;3.80;;;;;;;28.34;48.92;100612.00;6148556;28;20062;-88
2022/06/18 10:39:05;;;;;;;6.47;3.60;;;;;;;28.41;48.34;100611.88;6128099;28;20067;-89
2022/06/18 10:42:51;;;;;;;5.65;4.10;;;;;;;28.52;47.75;100613.72;6127810;28;20130;-90
2022/06/18 10:46:10;;;;;;;8.02;3.78;;;;;;;28.53;48.98;100618.00;6136811;28;20044;-88
2022/06/18 10:49:12;;;;;;;6.95;4.07;;;;;;;28.53;49.13;100615.31;6138788;28;20035;-88
2022/06/18 10:52:24;;;;;;;7.85;3.97;;;;;;;28.59;50.23;100612.75;6133362;28;20555;-89
2022/06/18 10:55:27;;;;;;;10.45;4.15;;;;;;;28.70;47.39;100610.03;6113762;28;20047;-88
2022/06/18 10:58:30;;;;;;;7.93;3.85;;;;;;;28.71;48.51;100606.31;6132236;28;20125;-89
2022/06/18 11:01:48;;;;;;;15.18;4.40;;;;;;;28.75;50.67;100612.00;6148026;28;20122;-89
2022/06/18 11:04:54;;;;;;;5.30;4.20;;;;;;;28.84;49.81;100602.53;6144387;28;20049;-89
2022/06/18 11:08:00;;;;;;;8.35;4.13;;;;;;;28.98;50.20;100601.19;6101426;28;20051;-88
2022/06/18 11:11:13;;;;;;;5.88;3.58;;;;;;;28.89;48.52;100607.94;6128951;28;20039;-90
2022/06/18 11:14:18;;;;;;;8.45;4.43;;;;;;;29.05;49.22;100606.38;6128400;28;20055;-88
2022/06/18 11:17:32;;;;;;;10.68;4.13;;;;;;;29.16;49.42;100604.69;6126667;28;20260;-89
2022/06/18 11:20:34;;;;;;;6.93;4.45;;;;;;;29.16;49.26;100610.81;6130346;28;20050;-88
2022/06/18 11:23:37;;;;;;;8.38;4.30;;;;;;;29.31;48.65;100594.25;6124162;28;20059;-89
2022/06/18 11:27:02;;;;;;;9.88;4.50;;;;;;;29.35;47.67;100600.72;6127285;28;20094;-88
2022/06/18 11:30:30;;;;;;;7.35;4.15;;;;;;;29.40;49.23;100603.47;6138559;28;20035;-88
2022/06/18 11:33:36;;;;;;;7.25;4.30;;;;;;;29.46;47.28;100601.69;6131261;28;20050;-88
2022/06/18 11:36:50;;;;;;;6.18;3.88;;;;;;;29.63;48.19;100597.13;6131237;28;20050;-88
2022/06/18 11:40:08;;;;;;;4.93;4.38;;;;;;;29.79;47.16;100613.38;6140147;28;20412;-90
2022/06/18 11:43:52;;;;;;;8.90;4.22;;;;;;;29.84;44.94;100597.44;6141006;28;20047;-91
2022/06/18 11:47:15;;;;;;;12.82;4.88;;;;;;;29.89;46.74;100604.69;6137113;28;20055;-88
2022/06/18 11:50:24;;;;;;;9.27;5.13;;;;;;;29.94;47.77;100594.91;6144353;28;20040;-88
2022/06/18 11:53:32;;;;;;;9.15;4.47;;;;;;;30.12;46.81;100585.75;6147938;28;20185;-86
2022/06/18 11:56:57;;;;;;;9.27;4.80;;;;;;;30.30;44.88;100605.22;6139503;28;20059;-89
2022/06/18 12:00:06;;;;;;;9.77;4.32;;;;;;;30.26;44.80;100600.38;6144258;28;20046;-89
2022/06/18 12:03:43;;;;;;;7.50;4.10;;;;;;;30.33;45.79;100588.66;6138325;28;20051;-90
2022/06/18 12:07:09;;;;;;;7.35;4.43;;;;;;;30.45;45.39;100584.00;6067426;29;20064;-89
2022/06/18 12:10:15;;;;;;;9.13;4.75;;;;;;;30.58;43.84;100585.44;6071464;29;20052;-91
2022/06/18 12:13:40;;;;;;;7.90;4.07;;;;;;;30.73;44.35;100574.91;6069669;29;20131;-92
2022/06/18 12:17:15;;;;;;;10.07;4.68;;;;;;;30.92;44.19;100575.34;6072643;29;20056;-89
2022/06/18 12:20:49;;;;;;;13.70;5.13;;;;;;;31.10;41.80;100566.91;6069373;29;20075;-93
2022/06/18 12:24:11;;;;;;;10.80;4.95;;;;;;;31.20;43.51;100563.50;6070098;29;20057;-92
2022/06/18 12:27:26;;;;;;;7.88;4.65;;;;;;;31.19;42.99;100566.47;6070506;29;20048;-93
2022/06/18 12:30:52;;;;;;;9.25;4.82;;;;;;;31.41;42.52;100567.16;6076540;29;20933;-94
2022/06/18 12:34:13;;;;;;;9.13;4.65;;;;;;;31.48;43.31;100566.94;6064556;29;20499;-92
2022/06/18 12:37:33;;;;;;;9.02;4.47;;;;;;;31.58;41.29;100564.31;6071371;29;20052;-92
2022/06/18 12:40:55;;;;;;;12.40;4.88;;;;;;;31.76;41.24;100550.47;6054997;29;20048;-92
2022/06/18 12:44:06;;;;;;;7.32;4.57;;;;;;;31.75;40.65;100548.88;6115663;28;20059;-91
2022/06/18 12:47:28;;;;;;;9.05;3.92;;;;;;;31.92;40.00;100542.50;6149841;28;20055;-91
2022/06/18 12:50:40;;;;;;;7.50;5.18;;;;;;;31.76;40.61;100538.97;6131927;28;20035;-93
2022/06/18 12:53:45;;;;;;;9.27;5.15;;;;;;;31.77;41.69;100540.56;6136490;28;20047;-92
2022/06/18 12:57:04;;;;;;;7.47;4.72;;;;;;;31.82;41.52;100531.75;6128914;28;20044;-91
2022/06/18 13:00:33;;;;;;;10.38;4.85;;;;;;;32.15;41.00;100527.88;6139358;28;20618;-93
2022/06/18 13:04:13;;;;;;;7.47;5.00;;;;;;;32.44;41.79;100524.66;6149947;28;20516;-92
2022/06/18 13:07:25;;;;;;;9.75;4.50;;;;;;;32.63;39.97;100527.66;6133873;28;20546;-94
2022/06/18 13:10:51;;;;;;;8.10;4.80;;;;;;;32.57;40.71;100529.53;6138509;28;20047;-93
2022/06/18 13:14:34;;;;;;;11.20;5.07;;;;;;;32.72;39.11;100524.19;6092280;29;20060;-96
2022/06/18 13:17:46;;;;;;;8.20;5.03;;;;;;;32.96;38.64;100521.72;6088610;29;20059;-94
2022/06/18 13:20:54;;;;;;;10.45;5.38;;;;;;;33.06;39.09;100522.81;6092580;29;20044;-94
2022/06/18 13:31:07;;;;;;;6.70;4.55;;;;;;;33.35;37.88;100517.66;6088664;29;20433;-94
2022/06/18 13:34:15;;;;;;;6.25;4.97;;;;;;;33.41;37.57;100511.19;6092392;29;20056;-92
2022/06/18 13:37:59;;;;;;;9.38;4.75;;;;;;;33.48;38.16;100511.69;6093456;29;20056;-93
2022/06/18 13:41:31;;;;;;;14.95;5.70;;;;;;;33.72;37.71;100513.78;6018423;29;20052;-92
2022/06/18 13:45:04;;;;;;;8.63;5.32;;;;;;;33.91;36.53;100512.03;6017113;29;20065;-96
2022/06/18 13:48:27;;;;;;;8.02;5.05;;;;;;;33.96;35.54;100506.63;5992546;29;20060;-93
2022/06/18 13:51:33;;;;;;;8.75;4.68;;;;;;;34.03;37.59;100509.81;6029006;29;20057;-93
2022/06/18 13:55:05;;;;;;;7.97;4.70;;;;;;;34.13;36.03;100505.50;6028399;29;20436;-94
2022/06/18 13:58:23;;;;;;;8.02;4.50;;;;;;;34.06;36.89;100505.78;6020398;29;20397;-94
2022/06/18 14:01:27;;;;;;;7.90;4.22;;;;;;;34.18;36.21;100503.56;6018552;29;20529;-93
2022/06/18 14:04:34;;;;;;;9.00;4.68;;;;;;;34.22;34.77;100498.47;6020406;29;20093;-93
2022/06/18 14:07:43;;;;;;;10.23;4.65;;;;;;;34.21;37.47;100503.03;6002814;29;20061;-92
2022/06/18 14:10:45;;;;;;;7.10;4.88;;;;;;;34.24;36.00;100491.72;6020180;29;20582;-91
2022/06/18 14:13:50;;;;;;;9.13;4.88;;;;;;;34.28;36.83;100492.75;6021980;29;20515;-93
2022/06/18 14:17:08;;;;;;;12.60;4.57;;;;;;;34.44;36.11;100495.34;6033307;29;20056;-93
2022/06/18 14:20:52;;;;;;;11.10;5.23;;;;;;;34.47;36.55;100487.50;6088756;29;20097;-92
2022/06/18 14:23:56;;;;;;;11.32;5.22;;;;;;;34.58;35.18;100480.13;6006182;29;20081;-92
2022/06/18 14:26:59;;;;;;;10.35;4.90;;;;;;;34.56;35.89;100481.50;6009013;29;20136;-93
2022/06/18 14:30:05;;;;;;;11.52;4.93;;;;;;;34.67;34.88;100491.13;6023971;29;20049;-92
2022/06/18 14:33:35;;;;;;;12.30;5.07;;;;;;;34.46;34.86;100483.22;6004208;29;20068;-92
2022/06/18 14:36:40;;;;;;;8.20;4.72;;;;;;;34.27;36.53;100484.97;6061667;29;20056;-93
2022/06/18 14:39:56;;;;;;;9.13;4.50;;;;;;;34.39;38.25;100474.66;6053613;29;20272;-93
2022/06/18 14:43:31;;;;;;;8.75;5.28;;;;;;;34.34;34.70;100469.34;6056252;29;20558;-93
2022/06/18 14:47:01;;;;;;;8.40;4.63;;;;;;;34.36;36.51;100469.88;6050424;29;20612;-93
2022/06/18 14:50:57;;;;;;;9.23;4.88;;;;;;;34.62;36.02;100458.91;6054103;29;20400;-91
2022/06/18 14:54:19;;;;;;;8.95;4.40;;;;;;;34.73;34.80;100460.38;6057597;29;20061;-91
2022/06/18 14:57:54;;;;;;;8.27;4.90;;;;;;;34.57;34.44;100451.66;6054867;29;20048;-93
2022/06/18 15:00:59;;;;;;;12.05;5.15;;;;;;;34.57;36.26;100446.28;6141185;28;20110;-93
2022/06/18 15:04:26;;;;;;;11.10;5.25;;;;;;;34.82;35.28;100445.25;6133177;28;20055;-93
2022/06/18 15:07:35;;;;;;;11.85;5.00;;;;;;;34.85;34.63;100425.84;6137269;28;20890;-92
2022/06/18 15:10:49;;;;;;;10.57;4.95;;;;;;;34.87;34.00;100423.66;6149265;28;20043;-96
2022/06/18 15:13:54;;;;;;;9.88;4.70;;;;;;;34.83;35.54;100425.31;6136800;28;20047;-93